sensor_id;sensor_type;location;lat;lon;timestamp;temperature;humidity
70246;SHT30;57637;49.272;8.590;2023-11-22T00:01:04;6.58;88.71
70246;SHT30;57637;49.272;8.590;2023-11-22T00:03:31;6.50;89.36
70246;SHT30;57637;49.272;8.590;2023-11-22T00:05:56;6.41;89.57
70246;SHT30;57637;49.272;8.590;2023-11-22T00:08:22;6.33;89.73
70246;SHT30;57637;49.272;8.590;2023-11-22T00:10:47;6.27;89.95
70246;SHT30;57637;49.272;8.590;2023-11-22T00:13:13;6.20;90.04
70246;SHT30;57637;49.272;8.590;2023-11-22T00:15:39;6.17;90.24
70246;SHT30;57637;49.272;8.590;2023-11-22T00:18:04;6.10;90.17
70246;SHT30;57637;49.272;8.590;2023-11-22T00:20:30;6.07;90.68
70246;SHT30;57637;49.272;8.590;2023-11-22T00:22:56;5.96;90.94
70246;SHT30;57637;49.272;8.590;2023-11-22T00:25:22;5.92;91.01
70246;SHT30;57637;49.272;8.590;2023-11-22T00:27:47;5.86;91.02
70246;SHT30;57637;49.272;8.590;2023-11-22T00:30:13;5.72;91.07
70246;SHT30;57637;49.272;8.590;2023-11-22T00:32:39;5.70;91.31
70246;SHT30;57637;49.272;8.590;2023-11-22T00:35:05;5.60;91.41
70246;SHT30;57637;49.272;8.590;2023-11-22T00:37:32;5.58;91.75
70246;SHT30;57637;49.272;8.590;2023-11-22T00:39:59;5.51;91.84
70246;SHT30;57637;49.272;8.590;2023-11-22T00:42:25;5.44;92.06
70246;SHT30;57637;49.272;8.590;2023-11-22T00:44:52;5.42;92.12
70246;SHT30;57637;49.272;8.590;2023-11-22T00:47:18;5.36;92.16
70246;SHT30;57637;49.272;8.590;2023-11-22T00:49:44;5.27;91.85
70246;SHT30;57637;49.272;8.590;2023-11-22T00:52:09;5.25;92.19
70246;SHT30;57637;49.272;8.590;2023-11-22T00:54:34;5.24;92.31
70246;SHT30;57637;49.272;8.590;2023-11-22T00:57:00;5.21;92.26
70246;SHT30;57637;49.272;8.590;2023-11-22T00:59:25;5.20;92.27
70246;SHT30;57637;49.272;8.590;2023-11-22T01:01:51;5.14;91.92
70246;SHT30;57637;49.272;8.590;2023-11-22T01:04:17;5.17;92.07
70246;SHT30;57637;49.272;8.590;2023-11-22T01:06:42;5.10;92.12
70246;SHT30;57637;49.272;8.590;2023-11-22T01:09:08;5.11;92.48
70246;SHT30;57637;49.272;8.590;2023-11-22T01:11:34;5.05;92.41
70246;SHT30;57637;49.272;8.590;2023-11-22T01:14:00;5.03;91.91
70246;SHT30;57637;49.272;8.590;2023-11-22T01:16:25;5.04;91.88
70246;SHT30;57637;49.272;8.590;2023-11-22T01:18:50;5.03;92.03
70246;SHT30;57637;49.272;8.590;2023-11-22T01:21:17;4.97;91.94
70246;SHT30;57637;49.272;8.590;2023-11-22T01:23:44;4.98;91.67
70246;SHT30;57637;49.272;8.590;2023-11-22T01:26:10;5.04;91.49
70246;SHT30;57637;49.272;8.590;2023-11-22T01:28:36;5.00;91.36
70246;SHT30;57637;49.272;8.590;2023-11-22T01:31:02;5.00;91.60
70246;SHT30;57637;49.272;8.590;2023-11-22T01:33:28;4.98;91.81
70246;SHT30;57637;49.272;8.590;2023-11-22T01:35:54;4.95;91.61
70246;SHT30;57637;49.272;8.590;2023-11-22T01:38:19;4.97;91.80
70246;SHT30;57637;49.272;8.590;2023-11-22T01:40:45;4.94;91.83
70246;SHT30;57637;49.272;8.590;2023-11-22T01:43:14;4.84;91.73
70246;SHT30;57637;49.272;8.590;2023-11-22T01:45:41;4.83;91.73
70246;SHT30;57637;49.272;8.590;2023-11-22T01:48:07;4.79;91.75
70246;SHT30;57637;49.272;8.590;2023-11-22T01:50:36;4.73;91.94
70246;SHT30;57637;49.272;8.590;2023-11-22T01:53:14;4.64;91.83
70246;SHT30;57637;49.272;8.590;2023-11-22T01:55:41;4.60;91.87
70246;SHT30;57637;49.272;8.590;2023-11-22T01:58:08;4.52;91.85
70246;SHT30;57637;49.272;8.590;2023-11-22T02:03:29;4.36;91.97
70246;SHT30;57637;49.272;8.590;2023-11-22T02:05:55;4.32;91.97
70246;SHT30;57637;49.272;8.590;2023-11-22T02:08:20;4.26;92.24
70246;SHT30;57637;49.272;8.590;2023-11-22T02:10:56;4.20;92.27
70246;SHT30;57637;49.272;8.590;2023-11-22T02:13:22;4.13;92.14
70246;SHT30;57637;49.272;8.590;2023-11-22T02:15:47;4.09;92.08
70246;SHT30;57637;49.272;8.590;2023-11-22T02:18:13;4.08;91.94
70246;SHT30;57637;49.272;8.590;2023-11-22T02:20:39;4.06;91.50
70246;SHT30;57637;49.272;8.590;2023-11-22T02:23:08;4.05;91.45
70246;SHT30;57637;49.272;8.590;2023-11-22T02:25:34;4.03;91.52
70246;SHT30;57637;49.272;8.590;2023-11-22T02:28:00;3.99;91.23
70246;SHT30;57637;49.272;8.590;2023-11-22T02:30:27;3.99;91.26
70246;SHT30;57637;49.272;8.590;2023-11-22T02:32:52;3.95;91.26
70246;SHT30;57637;49.272;8.590;2023-11-22T02:35:19;3.94;91.38
70246;SHT30;57637;49.272;8.590;2023-11-22T02:37:44;3.88;91.54
70246;SHT30;57637;49.272;8.590;2023-11-22T02:40:20;3.87;91.37
70246;SHT30;57637;49.272;8.590;2023-11-22T02:42:50;3.87;91.41
70246;SHT30;57637;49.272;8.590;2023-11-22T02:45:17;3.82;91.49
70246;SHT30;57637;49.272;8.590;2023-11-22T02:47:48;3.77;91.72
70246;SHT30;57637;49.272;8.590;2023-11-22T02:50:14;3.70;91.76
70246;SHT30;57637;49.272;8.590;2023-11-22T02:52:40;3.70;91.90
70246;SHT30;57637;49.272;8.590;2023-11-22T02:55:07;3.67;92.06
70246;SHT30;57637;49.272;8.590;2023-11-22T02:57:34;3.63;92.20
70246;SHT30;57637;49.272;8.590;2023-11-22T03:00:07;3.60;92.23
70246;SHT30;57637;49.272;8.590;2023-11-22T03:02:34;3.54;92.28
70246;SHT30;57637;49.272;8.590;2023-11-22T03:05:00;3.48;92.35
70246;SHT30;57637;49.272;8.590;2023-11-22T03:07:26;3.43;92.37
70246;SHT30;57637;49.272;8.590;2023-11-22T03:09:52;3.37;92.37
70246;SHT30;57637;49.272;8.590;2023-11-22T03:12:18;3.31;92.30
70246;SHT30;57637;49.272;8.590;2023-11-22T03:14:45;3.24;92.18
70246;SHT30;57637;49.272;8.590;2023-11-22T03:17:11;3.22;92.00
70246;SHT30;57637;49.272;8.590;2023-11-22T03:19:38;3.17;91.89
70246;SHT30;57637;49.272;8.590;2023-11-22T03:22:05;3.12;91.81
70246;SHT30;57637;49.272;8.590;2023-11-22T03:24:31;3.07;91.75
70246;SHT30;57637;49.272;8.590;2023-11-22T03:26:59;3.02;91.79
70246;SHT30;57637;49.272;8.590;2023-11-22T03:29:25;2.95;91.70
70246;SHT30;57637;49.272;8.590;2023-11-22T03:31:50;2.93;91.63
70246;SHT30;57637;49.272;8.590;2023-11-22T03:34:16;2.91;91.44
70246;SHT30;57637;49.272;8.590;2023-11-22T03:36:42;2.85;91.39
70246;SHT30;57637;49.272;8.590;2023-11-22T03:39:07;2.89;91.22
70246;SHT30;57637;49.272;8.590;2023-11-22T03:41:33;2.88;90.89
70246;SHT30;57637;49.272;8.590;2023-11-22T03:43:58;2.86;90.72
70246;SHT30;57637;49.272;8.590;2023-11-22T03:46:24;2.83;90.89
70246;SHT30;57637;49.272;8.590;2023-11-22T03:48:49;2.79;90.95
70246;SHT30;57637;49.272;8.590;2023-11-22T03:51:14;2.73;91.13
70246;SHT30;57637;49.272;8.590;2023-11-22T03:53:41;2.66;91.23
70246;SHT30;57637;49.272;8.590;2023-11-22T03:56:06;2.58;91.25
70246;SHT30;57637;49.272;8.590;2023-11-22T03:58:31;2.52;91.20
70246;SHT30;57637;49.272;8.590;2023-11-22T04:00:57;2.45;91.24
70246;SHT30;57637;49.272;8.590;2023-11-22T04:03:23;2.46;91.09
70246;SHT30;57637;49.272;8.590;2023-11-22T04:05:49;2.41;91.00
70246;SHT30;57637;49.272;8.590;2023-11-22T04:08:14;2.35;90.98
70246;SHT30;57637;49.272;8.590;2023-11-22T04:10:40;2.35;90.94
70246;SHT30;57637;49.272;8.590;2023-11-22T04:13:05;2.35;90.85
70246;SHT30;57637;49.272;8.590;2023-11-22T04:15:31;2.30;90.86
70246;SHT30;57637;49.272;8.590;2023-11-22T04:17:57;2.25;91.01
70246;SHT30;57637;49.272;8.590;2023-11-22T04:20:22;2.24;91.22
70246;SHT30;57637;49.272;8.590;2023-11-22T04:22:47;2.15;91.27
70246;SHT30;57637;49.272;8.590;2023-11-22T04:25:13;2.11;91.43
70246;SHT30;57637;49.272;8.590;2023-11-22T04:27:39;2.11;91.42
70246;SHT30;57637;49.272;8.590;2023-11-22T04:30:08;2.07;91.18
70246;SHT30;57637;49.272;8.590;2023-11-22T04:32:38;2.03;91.25
70246;SHT30;57637;49.272;8.590;2023-11-22T04:35:04;2.03;91.20
70246;SHT30;57637;49.272;8.590;2023-11-22T04:37:30;2.00;91.22
70246;SHT30;57637;49.272;8.590;2023-11-22T04:39:57;1.99;90.92
70246;SHT30;57637;49.272;8.590;2023-11-22T04:42:33;1.96;90.92
70246;SHT30;57637;49.272;8.590;2023-11-22T04:45:00;1.89;91.11
70246;SHT30;57637;49.272;8.590;2023-11-22T04:47:25;1.89;91.19
70246;SHT30;57637;49.272;8.590;2023-11-22T04:49:50;1.89;91.19
70246;SHT30;57637;49.272;8.590;2023-11-22T04:52:16;1.93;91.06
70246;SHT30;57637;49.272;8.590;2023-11-22T04:54:41;1.91;91.13
70246;SHT30;57637;49.272;8.590;2023-11-22T04:57:07;1.93;91.12
70246;SHT30;57637;49.272;8.590;2023-11-22T04:59:32;1.87;91.20
70246;SHT30;57637;49.272;8.590;2023-11-22T05:01:57;1.87;91.29
70246;SHT30;57637;49.272;8.590;2023-11-22T05:04:23;1.86;91.33
70246;SHT30;57637;49.272;8.590;2023-11-22T05:06:48;1.87;91.35
70246;SHT30;57637;49.272;8.590;2023-11-22T05:09:14;1.84;91.38
70246;SHT30;57637;49.272;8.590;2023-11-22T05:11:39;1.83;91.48
70246;SHT30;57637;49.272;8.590;2023-11-22T05:14:06;1.80;91.67
70246;SHT30;57637;49.272;8.590;2023-11-22T05:16:32;1.74;91.70
70246;SHT30;57637;49.272;8.590;2023-11-22T05:18:58;1.76;91.76
70246;SHT30;57637;49.272;8.590;2023-11-22T05:21:24;1.77;91.62
70246;SHT30;57637;49.272;8.590;2023-11-22T05:23:49;1.76;91.46
70246;SHT30;57637;49.272;8.590;2023-11-22T05:26:15;1.71;91.52
70246;SHT30;57637;49.272;8.590;2023-11-22T05:28:40;1.71;91.53
70246;SHT30;57637;49.272;8.590;2023-11-22T05:31:05;1.71;91.61
70246;SHT30;57637;49.272;8.590;2023-11-22T05:33:31;1.70;91.42
70246;SHT30;57637;49.272;8.590;2023-11-22T05:35:57;1.69;91.53
70246;SHT30;57637;49.272;8.590;2023-11-22T05:38:23;1.67;91.36
70246;SHT30;57637;49.272;8.590;2023-11-22T05:40:48;1.66;91.18
70246;SHT30;57637;49.272;8.590;2023-11-22T05:43:13;1.69;90.57
70246;SHT30;57637;49.272;8.590;2023-11-22T05:45:39;1.67;89.93
70246;SHT30;57637;49.272;8.590;2023-11-22T05:48:04;1.67;89.24
70246;SHT30;57637;49.272;8.590;2023-11-22T05:50:30;1.77;88.29
70246;SHT30;57637;49.272;8.590;2023-11-22T05:52:55;1.83;87.97
70246;SHT30;57637;49.272;8.590;2023-11-22T05:55:23;1.81;87.95
70246;SHT30;57637;49.272;8.590;2023-11-22T05:57:49;1.77;87.84
70246;SHT30;57637;49.272;8.590;2023-11-22T06:00:15;1.90;88.13
70246;SHT30;57637;49.272;8.590;2023-11-22T06:02:40;1.96;87.89
70246;SHT30;57637;49.272;8.590;2023-11-22T06:05:06;1.90;87.41
70246;SHT30;57637;49.272;8.590;2023-11-22T06:07:32;1.87;88.13
70246;SHT30;57637;49.272;8.590;2023-11-22T06:09:57;1.80;87.97
70246;SHT30;57637;49.272;8.590;2023-11-22T06:12:23;1.81;87.65
70246;SHT30;57637;49.272;8.590;2023-11-22T06:14:48;1.84;87.66
70246;SHT30;57637;49.272;8.590;2023-11-22T06:17:14;1.62;87.18
70246;SHT30;57637;49.272;8.590;2023-11-22T06:19:39;1.55;87.17
70246;SHT30;57637;49.272;8.590;2023-11-22T06:22:06;1.46;87.46
70246;SHT30;57637;49.272;8.590;2023-11-22T06:24:32;1.39;87.69
70246;SHT30;57637;49.272;8.590;2023-11-22T06:26:58;1.49;87.42
70246;SHT30;57637;49.272;8.590;2023-11-22T06:29:24;1.49;87.16
70246;SHT30;57637;49.272;8.590;2023-11-22T06:31:49;1.42;87.36
70246;SHT30;57637;49.272;8.590;2023-11-22T06:34:15;1.43;87.33
70246;SHT30;57637;49.272;8.590;2023-11-22T06:36:40;1.32;87.30
70246;SHT30;57637;49.272;8.590;2023-11-22T06:39:06;1.29;87.80
70246;SHT30;57637;49.272;8.590;2023-11-22T06:41:34;1.24;87.93
70246;SHT30;57637;49.272;8.590;2023-11-22T06:43:59;1.34;87.39
70246;SHT30;57637;49.272;8.590;2023-11-22T06:46:25;1.24;87.18
70246;SHT30;57637;49.272;8.590;2023-11-22T06:48:50;1.21;87.07
70246;SHT30;57637;49.272;8.590;2023-11-22T06:51:16;1.14;87.28
70246;SHT30;57637;49.272;8.590;2023-11-22T06:53:43;1.14;87.13
70246;SHT30;57637;49.272;8.590;2023-11-22T06:56:10;1.19;86.89
70246;SHT30;57637;49.272;8.590;2023-11-22T06:58:36;1.15;86.81
70246;SHT30;57637;49.272;8.590;2023-11-22T07:01:01;1.16;86.35
70246;SHT30;57637;49.272;8.590;2023-11-22T07:03:27;1.21;85.05
70246;SHT30;57637;49.272;8.590;2023-11-22T07:05:52;1.22;85.10
70246;SHT30;57637;49.272;8.590;2023-11-22T07:08:17;1.24;85.20
70246;SHT30;57637;49.272;8.590;2023-11-22T07:10:43;1.21;85.60
70246;SHT30;57637;49.272;8.590;2023-11-22T07:13:10;1.18;85.66
70246;SHT30;57637;49.272;8.590;2023-11-22T07:15:37;1.18;85.78
70246;SHT30;57637;49.272;8.590;2023-11-22T07:18:03;1.21;85.66
70246;SHT30;57637;49.272;8.590;2023-11-22T07:20:30;1.22;85.97
70246;SHT30;57637;49.272;8.590;2023-11-22T07:22:56;1.19;85.81
70246;SHT30;57637;49.272;8.590;2023-11-22T07:25:23;1.22;85.71
70246;SHT30;57637;49.272;8.590;2023-11-22T07:27:51;1.24;85.53
70246;SHT30;57637;49.272;8.590;2023-11-22T07:30:18;1.28;85.16
70246;SHT30;57637;49.272;8.590;2023-11-22T07:32:52;1.29;85.05
70246;SHT30;57637;49.272;8.590;2023-11-22T07:35:18;1.26;84.89
70246;SHT30;57637;49.272;8.590;2023-11-22T07:37:47;1.34;84.78
70246;SHT30;57637;49.272;8.590;2023-11-22T07:40:13;1.40;84.02
70246;SHT30;57637;49.272;8.590;2023-11-22T07:42:39;1.42;83.90
70246;SHT30;57637;49.272;8.590;2023-11-22T07:45:06;1.43;83.45
70246;SHT30;57637;49.272;8.590;2023-11-22T07:47:32;1.46;83.39
70246;SHT30;57637;49.272;8.590;2023-11-22T07:49:57;1.50;83.58
70246;SHT30;57637;49.272;8.590;2023-11-22T07:52:26;1.53;82.71
70246;SHT30;57637;49.272;8.590;2023-11-22T07:54:55;1.56;82.83
70246;SHT30;57637;49.272;8.590;2023-11-22T07:57:26;1.59;82.40
70246;SHT30;57637;49.272;8.590;2023-11-22T07:59:52;1.63;82.79
70246;SHT30;57637;49.272;8.590;2023-11-22T08:02:20;1.70;83.21
70246;SHT30;57637;49.272;8.590;2023-11-22T08:04:46;1.71;83.42
70246;SHT30;57637;49.272;8.590;2023-11-22T08:07:13;1.74;83.08
70246;SHT30;57637;49.272;8.590;2023-11-22T08:09:39;1.74;82.57
70246;SHT30;57637;49.272;8.590;2023-11-22T08:12:06;1.71;81.88
70246;SHT30;57637;49.272;8.590;2023-11-22T08:14:32;1.77;81.88
70246;SHT30;57637;49.272;8.590;2023-11-22T08:16:57;1.84;81.95
70246;SHT30;57637;49.272;8.590;2023-11-22T08:19:24;1.93;82.18
70246;SHT30;57637;49.272;8.590;2023-11-22T08:21:50;2.04;82.22
70246;SHT30;57637;49.272;8.590;2023-11-22T08:24:16;2.09;82.19
70246;SHT30;57637;49.272;8.590;2023-11-22T08:26:41;2.13;82.13
70246;SHT30;57637;49.272;8.590;2023-11-22T08:29:07;2.21;81.72
70246;SHT30;57637;49.272;8.590;2023-11-22T08:31:32;2.18;81.40
70246;SHT30;57637;49.272;8.590;2023-11-22T08:34:01;2.20;81.32
70246;SHT30;57637;49.272;8.590;2023-11-22T08:36:26;2.24;80.82
70246;SHT30;57637;49.272;8.590;2023-11-22T08:38:53;2.38;80.70
70246;SHT30;57637;49.272;8.590;2023-11-22T08:41:20;2.45;80.36
70246;SHT30;57637;49.272;8.590;2023-11-22T08:43:46;2.68;82.18
70246;SHT30;57637;49.272;8.590;2023-11-22T08:46:13;3.10;82.58
70246;SHT30;57637;49.272;8.590;2023-11-22T08:48:39;2.89;79.40
70246;SHT30;57637;49.272;8.590;2023-11-22T08:51:05;2.72;79.38
70246;SHT30;57637;49.272;8.590;2023-11-22T08:53:30;2.72;79.40
70246;SHT30;57637;49.272;8.590;2023-11-22T08:55:58;2.75;79.65
70246;SHT30;57637;49.272;8.590;2023-11-22T08:58:30;2.69;79.12
70246;SHT30;57637;49.272;8.590;2023-11-22T09:00:55;2.76;79.32
70246;SHT30;57637;49.272;8.590;2023-11-22T09:03:23;2.66;79.01
70246;SHT30;57637;49.272;8.590;2023-11-22T09:05:48;2.82;78.46
70246;SHT30;57637;49.272;8.590;2023-11-22T09:08:18;2.89;78.42
70246;SHT30;57637;49.272;8.590;2023-11-22T09:10:58;2.81;78.50
70246;SHT30;57637;49.272;8.590;2023-11-22T09:13:47;2.71;76.65
70246;SHT30;57637;49.272;8.590;2023-11-22T09:16:12;2.79;77.19
70246;SHT30;57637;49.272;8.590;2023-11-22T09:18:53;3.03;78.28
70246;SHT30;57637;49.272;8.590;2023-11-22T09:21:25;3.17;78.64
70246;SHT30;57637;49.272;8.590;2023-11-22T09:24:12;3.27;78.77
70246;SHT30;57637;49.272;8.590;2023-11-22T09:26:58;3.24;76.60
70246;SHT30;57637;49.272;8.590;2023-11-22T09:29:26;3.30;76.11
70246;SHT30;57637;49.272;8.590;2023-11-22T09:32:14;3.46;75.91
70246;SHT30;57637;49.272;8.590;2023-11-22T09:34:59;3.58;76.52
70246;SHT30;57637;49.272;8.590;2023-11-22T09:37:44;3.54;75.91
70246;SHT30;57637;49.272;8.590;2023-11-22T09:40:34;3.26;77.24
70246;SHT30;57637;49.272;8.590;2023-11-22T09:43:19;3.30;77.50
70246;SHT30;57637;49.272;8.590;2023-11-22T09:46:05;3.38;77.85
70246;SHT30;57637;49.272;8.590;2023-11-22T09:48:50;3.34;77.13
70246;SHT30;57637;49.272;8.590;2023-11-22T09:51:33;3.28;77.48
70246;SHT30;57637;49.272;8.590;2023-11-22T09:54:20;3.38;78.57
70246;SHT30;57637;49.272;8.590;2023-11-22T09:57:08;3.26;77.04
70246;SHT30;57637;49.272;8.590;2023-11-22T09:59:50;3.17;76.23
70246;SHT30;57637;49.272;8.590;2023-11-22T10:02:38;3.23;76.58
70246;SHT30;57637;49.272;8.590;2023-11-22T10:05:19;3.31;76.63
70246;SHT30;57637;49.272;8.590;2023-11-22T10:08:05;3.34;76.27
70246;SHT30;57637;49.272;8.590;2023-11-22T10:10:30;3.38;76.42
70246;SHT30;57637;49.272;8.590;2023-11-22T10:13:19;3.43;76.90
70246;SHT30;57637;49.272;8.590;2023-11-22T10:16:11;3.41;76.37
70246;SHT30;57637;49.272;8.590;2023-11-22T10:18:57;3.44;76.99
70246;SHT30;57637;49.272;8.590;2023-11-22T10:21:26;3.40;75.76
70246;SHT30;57637;49.272;8.590;2023-11-22T10:24:15;3.38;74.71
70246;SHT30;57637;49.272;8.590;2023-11-22T10:26:46;3.41;74.65
70246;SHT30;57637;49.272;8.590;2023-11-22T10:29:32;3.61;74.41
70246;SHT30;57637;49.272;8.590;2023-11-22T10:32:01;3.78;75.32
70246;SHT30;57637;49.272;8.590;2023-11-22T10:34:46;3.57;74.71
70246;SHT30;57637;49.272;8.590;2023-11-22T10:37:32;3.50;74.22
70246;SHT30;57637;49.272;8.590;2023-11-22T10:40:17;3.64;74.71
70246;SHT30;57637;49.272;8.590;2023-11-22T10:42:45;3.53;73.80
70246;SHT30;57637;49.272;8.590;2023-11-22T10:45:33;3.88;73.32
70246;SHT30;57637;49.272;8.590;2023-11-22T10:48:02;3.94;72.47
70246;SHT30;57637;49.272;8.590;2023-11-22T10:50:50;3.91;72.22
70246;SHT30;57637;49.272;8.590;2023-11-22T10:53:25;4.01;70.88
70246;SHT30;57637;49.272;8.590;2023-11-22T10:56:17;4.63;71.56
70246;SHT30;57637;49.272;8.590;2023-11-22T10:59:11;4.87;70.29
70246;SHT30;57637;49.272;8.590;2023-11-22T11:01:56;4.98;70.26
70246;SHT30;57637;49.272;8.590;2023-11-22T11:04:47;4.97;69.69
70246;SHT30;57637;49.272;8.590;2023-11-22T11:07:40;4.91;69.68
70246;SHT30;57637;49.272;8.590;2023-11-22T11:10:38;5.12;68.66
70246;SHT30;57637;49.272;8.590;2023-11-22T11:13:25;5.01;69.49
70246;SHT30;57637;49.272;8.590;2023-11-22T11:15:58;5.31;70.63
70246;SHT30;57637;49.272;8.590;2023-11-22T11:18:44;5.15;69.91
70246;SHT30;57637;49.272;8.590;2023-11-22T11:21:27;5.11;70.34
70246;SHT30;57637;49.272;8.590;2023-11-22T11:24:13;4.91;70.47
70246;SHT30;57637;49.272;8.590;2023-11-22T11:27:03;4.87;71.39
70246;SHT30;57637;49.272;8.590;2023-11-22T11:29:29;4.49;70.44
70246;SHT30;57637;49.272;8.590;2023-11-22T11:32:31;4.56;72.40
70246;SHT30;57637;49.272;8.590;2023-11-22T11:35:17;4.40;72.54
70246;SHT30;57637;49.272;8.590;2023-11-22T11:38:02;4.52;72.98
70246;SHT30;57637;49.272;8.590;2023-11-22T11:40:33;4.71;75.52
70246;SHT30;57637;49.272;8.590;2023-11-22T11:46:15;4.45;73.47
70246;SHT30;57637;49.272;8.590;2023-11-22T11:49:03;4.70;74.81
70246;SHT30;57637;49.272;8.590;2023-11-22T11:51:59;4.46;73.28
70246;SHT30;57637;49.272;8.590;2023-11-22T11:54:34;4.52;73.73
70246;SHT30;57637;49.272;8.590;2023-11-22T11:57:03;4.61;74.00
70246;SHT30;57637;49.272;8.590;2023-11-22T11:59:32;4.36;71.57
70246;SHT30;57637;49.272;8.590;2023-11-22T12:02:07;4.53;72.16
70246;SHT30;57637;49.272;8.590;2023-11-22T12:04:55;4.61;73.35
70246;SHT30;57637;49.272;8.590;2023-11-22T12:07:47;4.64;72.73
70246;SHT30;57637;49.272;8.590;2023-11-22T12:13:22;4.39;71.78
70246;SHT30;57637;49.272;8.590;2023-11-22T12:16:16;4.50;73.60
70246;SHT30;57637;49.272;8.590;2023-11-22T12:18:49;4.50;72.26
70246;SHT30;57637;49.272;8.590;2023-11-22T12:22:04;4.48;72.46
70246;SHT30;57637;49.272;8.590;2023-11-22T12:24:50;4.32;71.83
70246;SHT30;57637;49.272;8.590;2023-11-22T12:27:54;4.48;72.39
70246;SHT30;57637;49.272;8.590;2023-11-22T12:30:33;4.52;71.70
70246;SHT30;57637;49.272;8.590;2023-11-22T12:33:18;4.49;72.27
70246;SHT30;57637;49.272;8.590;2023-11-22T12:35:46;4.48;73.13
70246;SHT30;57637;49.272;8.590;2023-11-22T12:38:28;4.54;72.80
70246;SHT30;57637;49.272;8.590;2023-11-22T12:41:11;4.33;72.34
70246;SHT30;57637;49.272;8.590;2023-11-22T12:43:37;4.38;71.75
70246;SHT30;57637;49.272;8.590;2023-11-22T12:46:06;4.42;71.33
70246;SHT30;57637;49.272;8.590;2023-11-22T12:48:41;4.30;70.59
70246;SHT30;57637;49.272;8.590;2023-11-22T12:51:15;4.36;70.90
70246;SHT30;57637;49.272;8.590;2023-11-22T12:54:01;4.39;71.40
70246;SHT30;57637;49.272;8.590;2023-11-22T12:56:27;4.50;71.11
70246;SHT30;57637;49.272;8.590;2023-11-22T12:58:54;4.46;70.81
70246;SHT30;57637;49.272;8.590;2023-11-22T13:01:19;4.52;70.58
70246;SHT30;57637;49.272;8.590;2023-11-22T13:04:03;4.46;71.00
70246;SHT30;57637;49.272;8.590;2023-11-22T13:06:29;4.69;71.87
70246;SHT30;57637;49.272;8.590;2023-11-22T13:09:14;4.64;71.05
70246;SHT30;57637;49.272;8.590;2023-11-22T13:11:41;4.46;69.76
70246;SHT30;57637;49.272;8.590;2023-11-22T13:14:11;4.59;70.37
70246;SHT30;57637;49.272;8.590;2023-11-22T13:16:40;4.63;71.31
70246;SHT30;57637;49.272;8.590;2023-11-22T13:19:20;4.39;69.74
70246;SHT30;57637;49.272;8.590;2023-11-22T13:21:46;4.35;69.44
70246;SHT30;57637;49.272;8.590;2023-11-22T13:24:34;4.35;70.03
70246;SHT30;57637;49.272;8.590;2023-11-22T13:26:59;4.38;69.63
70246;SHT30;57637;49.272;8.590;2023-11-22T13:29:25;4.28;69.50
70246;SHT30;57637;49.272;8.590;2023-11-22T13:31:51;4.29;71.02
70246;SHT30;57637;49.272;8.590;2023-11-22T13:34:16;4.30;69.37
70246;SHT30;57637;49.272;8.590;2023-11-22T13:36:50;4.48;69.26
70246;SHT30;57637;49.272;8.590;2023-11-22T13:39:15;4.38;68.41
70246;SHT30;57637;49.272;8.590;2023-11-22T13:41:40;4.56;69.81
70246;SHT30;57637;49.272;8.590;2023-11-22T13:44:06;4.56;70.78
70246;SHT30;57637;49.272;8.590;2023-11-22T13:46:35;4.57;69.97
70246;SHT30;57637;49.272;8.590;2023-11-22T13:49:16;4.60;70.13
70246;SHT30;57637;49.272;8.590;2023-11-22T13:52:01;4.69;70.38
70246;SHT30;57637;49.272;8.590;2023-11-22T13:54:26;4.67;68.97
70246;SHT30;57637;49.272;8.590;2023-11-22T13:57:08;4.54;67.60
70246;SHT30;57637;49.272;8.590;2023-11-22T13:59:56;4.70;67.54
70246;SHT30;57637;49.272;8.590;2023-11-22T14:02:22;4.74;67.39
70246;SHT30;57637;49.272;8.590;2023-11-22T14:04:50;4.80;68.09
70246;SHT30;57637;49.272;8.590;2023-11-22T14:07:18;4.70;68.73
70246;SHT30;57637;49.272;8.590;2023-11-22T14:10:05;4.59;70.06
70246;SHT30;57637;49.272;8.590;2023-11-22T14:12:32;4.49;68.27
70246;SHT30;57637;49.272;8.590;2023-11-22T14:14:58;4.60;68.45
70246;SHT30;57637;49.272;8.590;2023-11-22T14:17:26;4.52;69.05
70246;SHT30;57637;49.272;8.590;2023-11-22T14:19:53;4.40;68.08
70246;SHT30;57637;49.272;8.590;2023-11-22T14:22:21;4.54;69.63
70246;SHT30;57637;49.272;8.590;2023-11-22T14:25:06;4.45;68.71
70246;SHT30;57637;49.272;8.590;2023-11-22T14:27:51;4.40;68.28
70246;SHT30;57637;49.272;8.590;2023-11-22T14:30:37;4.42;68.78
70246;SHT30;57637;49.272;8.590;2023-11-22T14:33:22;4.29;68.04
70246;SHT30;57637;49.272;8.590;2023-11-22T14:35:55;4.25;67.87
70246;SHT30;57637;49.272;8.590;2023-11-22T14:41:37;4.08;67.75
70246;SHT30;57637;49.272;8.590;2023-11-22T14:44:03;4.20;68.41
70246;SHT30;57637;49.272;8.590;2023-11-22T14:46:34;4.08;68.73
70246;SHT30;57637;49.272;8.590;2023-11-22T14:49:14;4.20;68.88
70246;SHT30;57637;49.272;8.590;2023-11-22T14:52:00;4.10;69.11
70246;SHT30;57637;49.272;8.590;2023-11-22T14:54:41;4.22;69.18
70246;SHT30;57637;49.272;8.590;2023-11-22T14:57:07;4.09;68.84
70246;SHT30;57637;49.272;8.590;2023-11-22T14:59:35;4.18;68.74
70246;SHT30;57637;49.272;8.590;2023-11-22T15:02:02;4.25;68.91
70246;SHT30;57637;49.272;8.590;2023-11-22T15:04:37;4.13;69.53
70246;SHT30;57637;49.272;8.590;2023-11-22T15:07:23;4.22;69.69
70246;SHT30;57637;49.272;8.590;2023-11-22T15:10:08;4.29;70.34
70246;SHT30;57637;49.272;8.590;2023-11-22T15:12:52;4.28;70.80
70246;SHT30;57637;49.272;8.590;2023-11-22T15:15:41;4.29;71.76
70246;SHT30;57637;49.272;8.590;2023-11-22T15:18:27;4.30;72.70
70246;SHT30;57637;49.272;8.590;2023-11-22T15:20:52;4.39;74.01
70246;SHT30;57637;49.272;8.590;2023-11-22T15:23:38;4.40;74.16
70246;SHT30;57637;49.272;8.590;2023-11-22T15:26:04;4.32;73.81
70246;SHT30;57637;49.272;8.590;2023-11-22T15:28:47;4.32;74.34
70246;SHT30;57637;49.272;8.590;2023-11-22T15:31:16;4.35;75.18
70246;SHT30;57637;49.272;8.590;2023-11-22T15:34:01;4.35;74.85
70246;SHT30;57637;49.272;8.590;2023-11-22T15:36:47;4.35;75.63
70246;SHT30;57637;49.272;8.590;2023-11-22T15:39:32;4.38;75.74
70246;SHT30;57637;49.272;8.590;2023-11-22T15:41:57;4.32;75.58
70246;SHT30;57637;49.272;8.590;2023-11-22T15:44:43;4.10;74.48
70246;SHT30;57637;49.272;8.590;2023-11-22T15:47:10;3.99;74.42
70246;SHT30;57637;49.272;8.590;2023-11-22T15:49:56;3.89;74.22
70246;SHT30;57637;49.272;8.590;2023-11-22T15:52:40;3.84;74.45
70246;SHT30;57637;49.272;8.590;2023-11-22T15:55:20;3.81;75.07
70246;SHT30;57637;49.272;8.590;2023-11-22T15:58:06;3.79;73.58
70246;SHT30;57637;49.272;8.590;2023-11-22T16:00:33;3.75;74.67
70246;SHT30;57637;49.272;8.590;2023-11-22T16:03:18;3.79;74.94
70246;SHT30;57637;49.272;8.590;2023-11-22T16:05:44;3.82;75.09
70246;SHT30;57637;49.272;8.590;2023-11-22T16:08:30;3.75;75.46
70246;SHT30;57637;49.272;8.590;2023-11-22T16:10:56;3.74;75.69
70246;SHT30;57637;49.272;8.590;2023-11-22T16:13:41;3.75;75.95
70246;SHT30;57637;49.272;8.590;2023-11-22T16:16:07;3.75;76.15
70246;SHT30;57637;49.272;8.590;2023-11-22T16:18:52;3.74;76.74
70246;SHT30;57637;49.272;8.590;2023-11-22T16:21:18;3.74;76.67
70246;SHT30;57637;49.272;8.590;2023-11-22T16:24:04;3.75;77.16